Ferrisburgh, VT

9:36 AM EST on December 03, 2016 (GMT -0500)
Round Barn Road | | Change Station

Elev 199 ft 44.21 °N, 73.25 °W | Updated 8 seconds ago

Overcast
Overcast
37.6 °F
Feels Like 34 °F
N
5.0
Wind Variable Wind from WNW
Gusts 21.0 mph

Today
High -- | Low -- °F
--% Chance of Precip.
Yesterday
High -- | Low -- °F
Precip. -- in
Pressure 29.93 in
Visibility 5.0 miles
Clouds Overcast 2500 ft
Windchill 34 °F
Dew Point 28 °F
Humidity 67%
Rainfall 0.00 in
Snow Depth Not available.
7:11 AM 4:14 PM
Waxing Crescent, 15% visible
METAR K6B0 031415Z AUTO 36005KT 5SM -SN OVC025 01/01 A2993 RMK AO2 T00120012
Pressure 29.93 in
Visibility 5.0 miles
Clouds Overcast 2500 ft
Windchill 34 °F
Dew Point 28 °F
Humidity 67%
Rainfall 0.00 in
Snow Depth Not available.
7:11 AM 4:14 PM
Waxing Crescent, 15% visible
METAR K6B0 031415Z AUTO 36005KT 5SM -SN OVC025 01/01 A2993 RMK AO2 T00120012

10-Day Weather Forecast

Almanac

Astronomy

Dec. 03, 2016 Rise Set
Actual Time
Civil Twilight
Nautical Twilight
Astronomical Twilight
Moon
Length of Visible Light
Length of Day
Tomorrow will be .
, % of the Moon is Illuminated

Today's Extremes

State Highs State Lows

Community

WunderPhotos

Upload Photos

1,955,446 photos uploaded!

WunderBlog® & News

Nearby

Air Quality

  Air Quality AQ Index Pollutant
Not available.

Snow Depth

Station Depth Elevation

Earthquake Activity

City Distance Mag. Time & Date
Minimum magnitude displayed is 2.5.

Coastal Water Temperatures

Place Temperature

Stations

Nearby Weather Stations

Station Location Temp. Windchill Dew Point Humidity Wind Precip. Elev Updated Type
                   

Watches & Warnings

There are currently no watches in effect.